sensor_id;sensor_type;location;lat;lon;timestamp;pressure;altitude;pressure_sealevel;temperature;humidity
34237;BME280;20501;45.956;13.632;2022-12-19T00:01:21;102465.63;;;9.48;45.73
34237;BME280;20501;45.956;13.632;2022-12-19T00:03:55;102461.97;;;10.11;47.21
34237;BME280;20501;45.956;13.632;2022-12-19T00:06:21;102468.91;;;10.31;46.69
34237;BME280;20501;45.956;13.632;2022-12-19T00:08:48;102460.72;;;10.02;44.15
34237;BME280;20501;45.956;13.632;2022-12-19T00:11:16;102464.94;;;9.44;49.20
34237;BME280;20501;45.956;13.632;2022-12-19T00:13:42;102461.63;;;9.55;44.24
34237;BME280;20501;45.956;13.632;2022-12-19T00:16:11;102457.34;;;8.51;45.84
34237;BME280;20501;45.956;13.632;2022-12-19T00:18:41;102469.50;;;9.10;49.85
34237;BME280;20501;45.956;13.632;2022-12-19T00:21:08;102462.50;;;9.39;47.21
34237;BME280;20501;45.956;13.632;2022-12-19T00:23:34;102460.66;;;7.85;48.79
34237;BME280;20501;45.956;13.632;2022-12-19T00:26:20;102449.94;;;6.49;49.96
34237;BME280;20501;45.956;13.632;2022-12-19T00:28:51;102451.94;;;6.65;53.65
34237;BME280;20501;45.956;13.632;2022-12-19T00:31:19;102453.59;;;5.15;53.65
34237;BME280;20501;45.956;13.632;2022-12-19T00:33:46;102453.25;;;6.96;54.48
34237;BME280;20501;45.956;13.632;2022-12-19T00:36:15;102454.75;;;5.32;53.74
34237;BME280;20501;45.956;13.632;2022-12-19T00:38:41;102467.75;;;4.95;57.20
34237;BME280;20501;45.956;13.632;2022-12-19T00:41:11;102489.41;;;6.68;53.61
34237;BME280;20501;45.956;13.632;2022-12-19T00:43:38;102495.78;;;6.86;54.22
34237;BME280;20501;45.956;13.632;2022-12-19T00:46:06;102484.03;;;7.08;52.13
34237;BME280;20501;45.956;13.632;2022-12-19T00:48:32;102472.06;;;7.53;52.82
34237;BME280;20501;45.956;13.632;2022-12-19T00:51:10;102467.72;;;8.93;50.40
34237;BME280;20501;45.956;13.632;2022-12-19T00:53:36;102463.94;;;9.29;49.40
34237;BME280;20501;45.956;13.632;2022-12-19T00:56:03;102469.03;;;9.67;48.34
34237;BME280;20501;45.956;13.632;2022-12-19T00:58:29;102455.41;;;9.21;49.76
34237;BME280;20501;45.956;13.632;2022-12-19T01:00:55;102459.44;;;9.45;49.13
34237;BME280;20501;45.956;13.632;2022-12-19T01:03:20;102472.84;;;8.29;48.78
34237;BME280;20501;45.956;13.632;2022-12-19T01:05:46;102479.09;;;9.16;48.26
34237;BME280;20501;45.956;13.632;2022-12-19T01:08:11;102475.72;;;8.94;49.85
34237;BME280;20501;45.956;13.632;2022-12-19T01:10:37;102478.63;;;9.23;49.06
34237;BME280;20501;45.956;13.632;2022-12-19T01:13:02;102496.25;;;8.97;48.66
34237;BME280;20501;45.956;13.632;2022-12-19T01:15:27;102499.97;;;9.12;49.61
34237;BME280;20501;45.956;13.632;2022-12-19T01:17:53;102498.47;;;9.06;48.64
34237;BME280;20501;45.956;13.632;2022-12-19T01:20:20;102496.16;;;6.15;49.71
34237;BME280;20501;45.956;13.632;2022-12-19T01:22:46;102505.78;;;5.05;55.50
34237;BME280;20501;45.956;13.632;2022-12-19T01:25:12;102496.47;;;8.59;51.59
34237;BME280;20501;45.956;13.632;2022-12-19T01:27:38;102493.41;;;7.56;46.53
34237;BME280;20501;45.956;13.632;2022-12-19T01:30:05;102484.59;;;9.62;48.76
34237;BME280;20501;45.956;13.632;2022-12-19T01:32:34;102474.72;;;9.13;44.52
34237;BME280;20501;45.956;13.632;2022-12-19T01:35:01;102472.50;;;4.87;52.88
34237;BME280;20501;45.956;13.632;2022-12-19T01:37:26;102474.94;;;6.71;52.79
34237;BME280;20501;45.956;13.632;2022-12-19T01:39:51;102468.50;;;7.53;50.36
34237;BME280;20501;45.956;13.632;2022-12-19T01:42:19;102465.94;;;8.41;51.92
34237;BME280;20501;45.956;13.632;2022-12-19T01:50:28;102448.72;;;7.35;47.66
34237;BME280;20501;45.956;13.632;2022-12-19T01:52:57;102453.81;;;8.32;52.18
34237;BME280;20501;45.956;13.632;2022-12-19T01:55:24;102457.75;;;5.91;49.73
34237;BME280;20501;45.956;13.632;2022-12-19T01:57:50;102456.88;;;3.70;55.74
34237;BME280;20501;45.956;13.632;2022-12-19T02:00:16;102459.22;;;3.52;58.46
34237;BME280;20501;45.956;13.632;2022-12-19T02:02:51;102446.38;;;5.17;54.21
34237;BME280;20501;45.956;13.632;2022-12-19T02:05:18;102439.97;;;6.10;56.86
34237;BME280;20501;45.956;13.632;2022-12-19T02:07:44;102439.44;;;7.23;53.86
34237;BME280;20501;45.956;13.632;2022-12-19T02:10:10;102427.72;;;6.66;52.09
34237;BME280;20501;45.956;13.632;2022-12-19T02:12:39;102426.75;;;6.06;51.94
34237;BME280;20501;45.956;13.632;2022-12-19T02:15:07;102429.53;;;6.45;53.87
34237;BME280;20501;45.956;13.632;2022-12-19T02:27:52;102407.94;;;9.34;49.54
34237;BME280;20501;45.956;13.632;2022-12-19T02:33:49;102413.78;;;5.72;53.39
34237;BME280;20501;45.956;13.632;2022-12-19T02:39:07;102424.19;;;9.01;50.42
34237;BME280;20501;45.956;13.632;2022-12-19T02:41:40;102429.03;;;7.53;50.89
34237;BME280;20501;45.956;13.632;2022-12-19T02:44:22;102436.88;;;8.12;48.59
34237;BME280;20501;45.956;13.632;2022-12-19T02:46:49;102428.56;;;9.51;48.23
34237;BME280;20501;45.956;13.632;2022-12-19T02:49:16;102431.63;;;10.22;47.38
34237;BME280;20501;45.956;13.632;2022-12-19T02:51:41;102430.75;;;10.21;47.02
34237;BME280;20501;45.956;13.632;2022-12-19T02:54:07;102434.41;;;7.53;49.03
34237;BME280;20501;45.956;13.632;2022-12-19T02:56:42;102431.38;;;5.35;53.62
34237;BME280;20501;45.956;13.632;2022-12-19T03:01:56;102423.69;;;8.76;50.98
34237;BME280;20501;45.956;13.632;2022-12-19T03:04:46;102422.88;;;7.69;48.15
34237;BME280;20501;45.956;13.632;2022-12-19T03:07:41;102418.22;;;7.36;54.40
34237;BME280;20501;45.956;13.632;2022-12-19T03:13:15;102397.31;;;6.85;54.31
34237;BME280;20501;45.956;13.632;2022-12-19T03:15:49;102405.03;;;8.03;47.71
34237;BME280;20501;45.956;13.632;2022-12-19T03:18:15;102415.41;;;7.01;52.01
34237;BME280;20501;45.956;13.632;2022-12-19T03:23:12;102406.63;;;8.42;45.52
34237;BME280;20501;45.956;13.632;2022-12-19T03:25:39;102402.50;;;8.00;50.41
34237;BME280;20501;45.956;13.632;2022-12-19T03:28:11;102399.34;;;7.18;53.18
34237;BME280;20501;45.956;13.632;2022-12-19T03:30:40;102404.13;;;7.31;52.38
34237;BME280;20501;45.956;13.632;2022-12-19T03:33:08;102400.50;;;6.54;52.68
34237;BME280;20501;45.956;13.632;2022-12-19T03:35:36;102413.28;;;7.07;53.94
34237;BME280;20501;45.956;13.632;2022-12-19T03:38:03;102421.22;;;7.66;52.28
34237;BME280;20501;45.956;13.632;2022-12-19T03:40:30;102415.66;;;8.41;49.61
34237;BME280;20501;45.956;13.632;2022-12-19T03:43:03;102407.81;;;9.52;48.34
34237;BME280;20501;45.956;13.632;2022-12-19T03:50:52;102395.00;;;9.87;47.98
34237;BME280;20501;45.956;13.632;2022-12-19T03:55:52;102392.13;;;8.45;48.68
34237;BME280;20501;45.956;13.632;2022-12-19T03:58:32;102402.53;;;9.50;45.52
34237;BME280;20501;45.956;13.632;2022-12-19T04:00:59;102386.88;;;5.96;56.55
34237;BME280;20501;45.956;13.632;2022-12-19T04:03:26;102394.91;;;7.17;55.93
34237;BME280;20501;45.956;13.632;2022-12-19T04:05:53;102390.25;;;8.80;51.43
34237;BME280;20501;45.956;13.632;2022-12-19T04:08:19;102385.81;;;8.95;50.31
34237;BME280;20501;45.956;13.632;2022-12-19T04:11:09;102387.69;;;7.73;48.60
34237;BME280;20501;45.956;13.632;2022-12-19T04:13:55;102401.28;;;8.92;51.11
34237;BME280;20501;45.956;13.632;2022-12-19T04:16:37;102407.06;;;9.96;48.24
34237;BME280;20501;45.956;13.632;2022-12-19T04:19:29;102393.47;;;9.51;48.41
34237;BME280;20501;45.956;13.632;2022-12-19T04:22:03;102397.34;;;9.78;48.37
34237;BME280;20501;45.956;13.632;2022-12-19T04:24:37;102397.97;;;10.28;47.48
34237;BME280;20501;45.956;13.632;2022-12-19T04:27:05;102393.59;;;10.11;45.98
34237;BME280;20501;45.956;13.632;2022-12-19T04:29:34;102388.41;;;8.30;51.58
34237;BME280;20501;45.956;13.632;2022-12-19T04:32:02;102382.88;;;8.50;46.92
34237;BME280;20501;45.956;13.632;2022-12-19T04:34:28;102386.00;;;7.17;48.99
34237;BME280;20501;45.956;13.632;2022-12-19T04:36:53;102388.56;;;8.62;51.59
34237;BME280;20501;45.956;13.632;2022-12-19T04:39:19;102397.81;;;8.39;48.98
34237;BME280;20501;45.956;13.632;2022-12-19T04:41:44;102392.69;;;8.34;49.09
34237;BME280;20501;45.956;13.632;2022-12-19T04:44:10;102396.72;;;6.18;51.48
34237;BME280;20501;45.956;13.632;2022-12-19T04:46:35;102390.19;;;7.03;54.91
34237;BME280;20501;45.956;13.632;2022-12-19T04:49:01;102391.09;;;7.40;52.74
34237;BME280;20501;45.956;13.632;2022-12-19T04:51:26;102384.25;;;8.91;50.47
34237;BME280;20501;45.956;13.632;2022-12-19T04:53:51;102398.72;;;8.73;47.42
34237;BME280;20501;45.956;13.632;2022-12-19T04:56:17;102396.63;;;9.11;50.41
34237;BME280;20501;45.956;13.632;2022-12-19T04:58:42;102396.75;;;9.72;48.51
34237;BME280;20501;45.956;13.632;2022-12-19T05:01:08;102404.00;;;9.40;48.50
34237;BME280;20501;45.956;13.632;2022-12-19T05:03:34;102403.25;;;8.03;49.01
34237;BME280;20501;45.956;13.632;2022-12-19T05:06:11;102407.31;;;9.45;49.66
34237;BME280;20501;45.956;13.632;2022-12-19T05:08:39;102408.47;;;10.18;47.73
34237;BME280;20501;45.956;13.632;2022-12-19T05:11:05;102401.56;;;6.70;51.49
34237;BME280;20501;45.956;13.632;2022-12-19T05:13:31;102398.19;;;9.16;50.64
34237;BME280;20501;45.956;13.632;2022-12-19T05:16:02;102391.06;;;9.93;48.50
34237;BME280;20501;45.956;13.632;2022-12-19T05:18:28;102398.25;;;9.46;49.03
34237;BME280;20501;45.956;13.632;2022-12-19T05:20:54;102399.22;;;10.22;47.86
34237;BME280;20501;45.956;13.632;2022-12-19T05:23:20;102398.56;;;10.33;47.35
34237;BME280;20501;45.956;13.632;2022-12-19T05:25:46;102406.03;;;10.13;47.64
34237;BME280;20501;45.956;13.632;2022-12-19T05:28:12;102397.69;;;10.32;47.30
34237;BME280;20501;45.956;13.632;2022-12-19T05:30:37;102401.91;;;10.52;46.87
34237;BME280;20501;45.956;13.632;2022-12-19T05:33:03;102396.78;;;9.08;48.92
34237;BME280;20501;45.956;13.632;2022-12-19T05:35:28;102396.28;;;8.68;48.42
34237;BME280;20501;45.956;13.632;2022-12-19T05:37:53;102390.63;;;8.39;48.33
34237;BME280;20501;45.956;13.632;2022-12-19T05:40:19;102394.03;;;6.18;51.91
34237;BME280;20501;45.956;13.632;2022-12-19T05:42:44;102397.50;;;5.10;53.93
34237;BME280;20501;45.956;13.632;2022-12-19T05:45:10;102393.94;;;4.64;60.44
34237;BME280;20501;45.956;13.632;2022-12-19T05:47:35;102391.41;;;6.37;57.39
34237;BME280;20501;45.956;13.632;2022-12-19T05:50:00;102391.75;;;7.82;53.03
34237;BME280;20501;45.956;13.632;2022-12-19T05:52:26;102399.81;;;7.65;52.55
34237;BME280;20501;45.956;13.632;2022-12-19T05:54:52;102401.19;;;8.77;46.52
34237;BME280;20501;45.956;13.632;2022-12-19T05:57:18;102398.88;;;8.01;51.68
34237;BME280;20501;45.956;13.632;2022-12-19T05:59:43;102406.38;;;8.29;50.83
34237;BME280;20501;45.956;13.632;2022-12-19T06:02:09;102415.78;;;8.73;51.26
34237;BME280;20501;45.956;13.632;2022-12-19T06:04:36;102404.25;;;8.36;48.86
34237;BME280;20501;45.956;13.632;2022-12-19T06:07:02;102405.81;;;9.07;47.66
34237;BME280;20501;45.956;13.632;2022-12-19T06:09:27;102416.53;;;5.93;56.58
34237;BME280;20501;45.956;13.632;2022-12-19T06:11:53;102414.75;;;6.56;54.32
34237;BME280;20501;45.956;13.632;2022-12-19T06:14:18;102410.38;;;9.23;50.21
34237;BME280;20501;45.956;13.632;2022-12-19T06:16:44;102413.22;;;9.20;45.83
34237;BME280;20501;45.956;13.632;2022-12-19T06:19:09;102413.50;;;9.94;48.12
34237;BME280;20501;45.956;13.632;2022-12-19T06:21:35;102411.53;;;10.12;45.75
34237;BME280;20501;45.956;13.632;2022-12-19T06:24:00;102414.53;;;9.44;49.36
34237;BME280;20501;45.956;13.632;2022-12-19T06:26:26;102411.78;;;9.93;47.97
34237;BME280;20501;45.956;13.632;2022-12-19T06:28:54;102405.91;;;7.86;52.94
34237;BME280;20501;45.956;13.632;2022-12-19T06:31:21;102404.34;;;8.52;50.88
34237;BME280;20501;45.956;13.632;2022-12-19T06:33:47;102411.41;;;9.52;49.48
34237;BME280;20501;45.956;13.632;2022-12-19T06:36:19;102413.78;;;10.19;47.87
34237;BME280;20501;45.956;13.632;2022-12-19T06:38:44;102421.97;;;10.18;48.32
34237;BME280;20501;45.956;13.632;2022-12-19T06:41:10;102404.44;;;9.00;46.92
34237;BME280;20501;45.956;13.632;2022-12-19T06:43:58;102403.22;;;9.38;49.37
34237;BME280;20501;45.956;13.632;2022-12-19T06:46:24;102401.31;;;9.40;49.04
34237;BME280;20501;45.956;13.632;2022-12-19T06:48:50;102397.50;;;8.96;45.42
34237;BME280;20501;45.956;13.632;2022-12-19T06:51:16;102394.22;;;7.50;48.75
34237;BME280;20501;45.956;13.632;2022-12-19T06:53:42;102397.75;;;8.58;50.59
34237;BME280;20501;45.956;13.632;2022-12-19T06:56:07;102387.34;;;7.99;47.90
34237;BME280;20501;45.956;13.632;2022-12-19T06:58:33;102398.84;;;5.45;51.84
34237;BME280;20501;45.956;13.632;2022-12-19T07:00:59;102404.22;;;4.99;54.30
34237;BME280;20501;45.956;13.632;2022-12-19T07:03:29;102403.72;;;3.61;58.85
34237;BME280;20501;45.956;13.632;2022-12-19T07:05:56;102407.44;;;6.18;58.58
34237;BME280;20501;45.956;13.632;2022-12-19T07:08:21;102408.94;;;7.43;50.17
34237;BME280;20501;45.956;13.632;2022-12-19T07:10:47;102409.53;;;5.89;52.70
34237;BME280;20501;45.956;13.632;2022-12-19T07:13:12;102414.47;;;7.02;54.91
34237;BME280;20501;45.956;13.632;2022-12-19T07:15:38;102418.47;;;6.12;53.34
34237;BME280;20501;45.956;13.632;2022-12-19T07:18:06;102424.03;;;6.88;53.95
34237;BME280;20501;45.956;13.632;2022-12-19T07:20:33;102429.47;;;6.87;53.96
34237;BME280;20501;45.956;13.632;2022-12-19T07:23:00;102428.69;;;7.04;55.22
34237;BME280;20501;45.956;13.632;2022-12-19T07:25:27;102430.22;;;8.37;47.26
34237;BME280;20501;45.956;13.632;2022-12-19T07:27:53;102429.25;;;7.85;49.67
34237;BME280;20501;45.956;13.632;2022-12-19T07:30:18;102425.22;;;8.64;51.13
34237;BME280;20501;45.956;13.632;2022-12-19T07:32:43;102432.59;;;9.74;47.98
34237;BME280;20501;45.956;13.632;2022-12-19T07:35:10;102428.53;;;10.14;47.40
34237;BME280;20501;45.956;13.632;2022-12-19T07:37:35;102436.69;;;9.98;47.95
34237;BME280;20501;45.956;13.632;2022-12-19T07:40:01;102424.50;;;8.43;46.65
34237;BME280;20501;45.956;13.632;2022-12-19T07:42:27;102424.41;;;7.19;48.70
34237;BME280;20501;45.956;13.632;2022-12-19T07:44:52;102439.19;;;8.89;50.08
34237;BME280;20501;45.956;13.632;2022-12-19T07:47:17;102426.78;;;8.52;47.84
34237;BME280;20501;45.956;13.632;2022-12-19T07:49:43;102442.72;;;7.30;54.22
34237;BME280;20501;45.956;13.632;2022-12-19T07:52:08;102442.09;;;6.24;52.31
34237;BME280;20501;45.956;13.632;2022-12-19T07:54:34;102440.25;;;7.44;52.74
34237;BME280;20501;45.956;13.632;2022-12-19T07:57:00;102435.31;;;7.16;53.20
34237;BME280;20501;45.956;13.632;2022-12-19T07:59:26;102440.28;;;7.62;53.83
34237;BME280;20501;45.956;13.632;2022-12-19T08:01:51;102430.41;;;8.51;50.57
34237;BME280;20501;45.956;13.632;2022-12-19T08:04:16;102439.59;;;8.47;51.31
34237;BME280;20501;45.956;13.632;2022-12-19T08:06:42;102431.50;;;8.30;50.44
34237;BME280;20501;45.956;13.632;2022-12-19T08:09:07;102440.09;;;8.89;49.31
34237;BME280;20501;45.956;13.632;2022-12-19T08:11:33;102443.75;;;9.84;48.43
34237;BME280;20501;45.956;13.632;2022-12-19T08:13:58;102424.22;;;9.49;48.54
34237;BME280;20501;45.956;13.632;2022-12-19T08:16:25;102430.03;;;9.25;45.02
34237;BME280;20501;45.956;13.632;2022-12-19T08:18:52;102429.41;;;9.20;49.46
34237;BME280;20501;45.956;13.632;2022-12-19T08:21:17;102436.22;;;9.59;48.17
34237;BME280;20501;45.956;13.632;2022-12-19T08:23:43;102447.63;;;8.82;48.38
34237;BME280;20501;45.956;13.632;2022-12-19T08:26:12;102444.84;;;9.18;47.29
34237;BME280;20501;45.956;13.632;2022-12-19T08:28:38;102438.34;;;9.84;47.95
34237;BME280;20501;45.956;13.632;2022-12-19T08:31:08;102447.44;;;10.14;48.00
34237;BME280;20501;45.956;13.632;2022-12-19T08:33:34;102442.25;;;10.56;46.85
34237;BME280;20501;45.956;13.632;2022-12-19T08:36:09;102447.47;;;10.28;44.82
34237;BME280;20501;45.956;13.632;2022-12-19T08:38:35;102449.94;;;10.17;47.02
34237;BME280;20501;45.956;13.632;2022-12-19T08:41:01;102445.78;;;8.83;48.24
34237;BME280;20501;45.956;13.632;2022-12-19T08:43:27;102448.81;;;8.06;50.04
34237;BME280;20501;45.956;13.632;2022-12-19T08:45:53;102443.97;;;8.83;50.58
34237;BME280;20501;45.956;13.632;2022-12-19T08:48:19;102446.88;;;9.93;47.82
34237;BME280;20501;45.956;13.632;2022-12-19T08:50:56;102443.28;;;10.38;46.36
34237;BME280;20501;45.956;13.632;2022-12-19T08:53:23;102446.63;;;10.87;45.77
34237;BME280;20501;45.956;13.632;2022-12-19T08:55:57;102445.56;;;11.04;42.98
34237;BME280;20501;45.956;13.632;2022-12-19T08:58:24;102441.00;;;9.54;47.95
34237;BME280;20501;45.956;13.632;2022-12-19T09:00:50;102445.25;;;10.94;45.71
34237;BME280;20501;45.956;13.632;2022-12-19T09:03:18;102449.81;;;10.04;45.30
34237;BME280;20501;45.956;13.632;2022-12-19T09:05:43;102445.00;;;8.81;46.43
34237;BME280;20501;45.956;13.632;2022-12-19T09:08:09;102439.06;;;9.72;45.22
34237;BME280;20501;45.956;13.632;2022-12-19T09:10:36;102440.88;;;10.48;46.87
34237;BME280;20501;45.956;13.632;2022-12-19T09:13:02;102436.25;;;9.89;44.49
34237;BME280;20501;45.956;13.632;2022-12-19T09:15:28;102438.00;;;9.74;43.76
34237;BME280;20501;45.956;13.632;2022-12-19T09:17:54;102442.63;;;9.56;48.62
34237;BME280;20501;45.956;13.632;2022-12-19T09:20:20;102432.47;;;9.29;49.60
34237;BME280;20501;45.956;13.632;2022-12-19T09:22:45;102439.22;;;7.83;46.74
34237;BME280;20501;45.956;13.632;2022-12-19T09:25:11;102434.75;;;8.19;49.15
34237;BME280;20501;45.956;13.632;2022-12-19T09:27:36;102432.06;;;8.54;47.68
34237;BME280;20501;45.956;13.632;2022-12-19T09:30:02;102439.41;;;8.68;45.69
34237;BME280;20501;45.956;13.632;2022-12-19T09:32:28;102443.09;;;9.33;48.84
34237;BME280;20501;45.956;13.632;2022-12-19T09:34:54;102437.88;;;10.08;46.14
34237;BME280;20501;45.956;13.632;2022-12-19T09:37:20;102433.94;;;10.28;44.46
34237;BME280;20501;45.956;13.632;2022-12-19T09:39:46;102422.28;;;8.69;48.59
34237;BME280;20501;45.956;13.632;2022-12-19T09:47:15;102417.34;;;10.50;46.74
34237;BME280;20501;45.956;13.632;2022-12-19T09:49:43;102418.06;;;9.93;47.00
34237;BME280;20501;45.956;13.632;2022-12-19T09:52:27;102428.94;;;9.75;48.73
34237;BME280;20501;45.956;13.632;2022-12-19T09:55:20;102430.88;;;10.50;46.76
34237;BME280;20501;45.956;13.632;2022-12-19T10:00:46;102425.34;;;10.52;46.38
34237;BME280;20501;45.956;13.632;2022-12-19T10:03:29;102426.81;;;10.27;47.19
34237;BME280;20501;45.956;13.632;2022-12-19T10:06:23;102422.63;;;10.07;44.87
34237;BME280;20501;45.956;13.632;2022-12-19T10:08:48;102415.72;;;10.62;46.79
34237;BME280;20501;45.956;13.632;2022-12-19T10:28:25;102405.13;;;9.20;48.23
34237;BME280;20501;45.956;13.632;2022-12-19T10:34:22;102407.56;;;10.48;47.66
34237;BME280;20501;45.956;13.632;2022-12-19T10:36:52;102405.94;;;10.45;47.54
34237;BME280;20501;45.956;13.632;2022-12-19T10:42:16;102410.88;;;10.82;46.83
34237;BME280;20501;45.956;13.632;2022-12-19T10:44:44;102409.53;;;10.46;45.10
34237;BME280;20501;45.956;13.632;2022-12-19T10:47:14;102403.25;;;10.60;44.34
34237;BME280;20501;45.956;13.632;2022-12-19T10:49:40;102408.03;;;11.27;46.12
34237;BME280;20501;45.956;13.632;2022-12-19T10:52:08;102410.69;;;11.41;45.79
34237;BME280;20501;45.956;13.632;2022-12-19T11:00:04;102397.97;;;9.67;46.86
34237;BME280;20501;45.956;13.632;2022-12-19T11:02:47;102383.81;;;8.99;46.82
34237;BME280;20501;45.956;13.632;2022-12-19T11:05:38;102391.03;;;9.63;48.64
34237;BME280;20501;45.956;13.632;2022-12-19T11:12:59;102373.28;;;8.78;46.36
34237;BME280;20501;45.956;13.632;2022-12-19T11:15:24;102374.75;;;10.40;48.04
34237;BME280;20501;45.956;13.632;2022-12-19T11:17:50;102368.91;;;10.17;45.95
34237;BME280;20501;45.956;13.632;2022-12-19T11:20:21;102362.13;;;8.17;49.23
34237;BME280;20501;45.956;13.632;2022-12-19T11:22:55;102366.28;;;10.01;48.99
34237;BME280;20501;45.956;13.632;2022-12-19T11:25:30;102363.53;;;11.04;46.61
34237;BME280;20501;45.956;13.632;2022-12-19T11:27:57;102364.16;;;11.36;46.15
34237;BME280;20501;45.956;13.632;2022-12-19T11:30:24;102357.47;;;9.36;46.09
34237;BME280;20501;45.956;13.632;2022-12-19T11:33:14;102369.66;;;10.04;47.43
34237;BME280;20501;45.956;13.632;2022-12-19T11:35:58;102358.47;;;10.56;48.23
34237;BME280;20501;45.956;13.632;2022-12-19T11:38:38;102354.59;;;9.55;48.57
34237;BME280;20501;45.956;13.632;2022-12-19T11:41:12;102351.22;;;10.71;44.90
34237;BME280;20501;45.956;13.632;2022-12-19T11:43:48;102347.97;;;8.97;46.72
34237;BME280;20501;45.956;13.632;2022-12-19T11:51:53;102336.50;;;9.72;48.86
34237;BME280;20501;45.956;13.632;2022-12-19T11:57:14;102329.91;;;9.92;44.19
34237;BME280;20501;45.956;13.632;2022-12-19T11:59:39;102329.47;;;10.87;47.16
34237;BME280;20501;45.956;13.632;2022-12-19T12:07:37;102317.03;;;10.12;46.73
34237;BME280;20501;45.956;13.632;2022-12-19T12:10:17;102316.03;;;10.99;47.41
34237;BME280;20501;45.956;13.632;2022-12-19T12:13:09;102312.28;;;10.88;47.13
34237;BME280;20501;45.956;13.632;2022-12-19T12:16:10;102313.16;;;10.88;46.79
34237;BME280;20501;45.956;13.632;2022-12-19T12:26:36;102306.69;;;9.12;46.96
34237;BME280;20501;45.956;13.632;2022-12-19T12:29:24;102303.13;;;9.58;47.92
34237;BME280;20501;45.956;13.632;2022-12-19T12:32:06;102305.16;;;9.39;46.99
34237;BME280;20501;45.956;13.632;2022-12-19T12:45:45;102298.44;;;8.67;49.30
34237;BME280;20501;45.956;13.632;2022-12-19T12:48:29;102282.19;;;8.35;50.24
34237;BME280;20501;45.956;13.632;2022-12-19T12:50:57;102294.94;;;9.29;49.53
34237;BME280;20501;45.956;13.632;2022-12-19T12:53:28;102289.22;;;9.50;46.24
34237;BME280;20501;45.956;13.632;2022-12-19T12:55:58;102285.66;;;8.71;48.04
34237;BME280;20501;45.956;13.632;2022-12-19T13:01:31;102284.88;;;9.48;46.60
34237;BME280;20501;45.956;13.632;2022-12-19T13:06:33;102278.63;;;10.06;48.98
34237;BME280;20501;45.956;13.632;2022-12-19T13:09:20;102268.09;;;10.02;47.36
34237;BME280;20501;45.956;13.632;2022-12-19T13:14:48;102270.63;;;10.05;48.93
34237;BME280;20501;45.956;13.632;2022-12-19T13:24:58;102278.81;;;10.76;46.81
34237;BME280;20501;45.956;13.632;2022-12-19T13:32:26;102273.63;;;11.27;46.50
34237;BME280;20501;45.956;13.632;2022-12-19T13:34:57;102274.72;;;10.97;47.21
34237;BME280;20501;45.956;13.632;2022-12-19T13:37:26;102256.66;;;10.42;48.64
34237;BME280;20501;45.956;13.632;2022-12-19T13:42:23;102251.75;;;10.90;47.53
34237;BME280;20501;45.956;13.632;2022-12-19T13:47:40;102259.66;;;10.93;47.67
34237;BME280;20501;45.956;13.632;2022-12-19T13:50:37;102265.00;;;10.80;48.25
34237;BME280;20501;45.956;13.632;2022-12-19T13:53:17;102266.72;;;10.96;47.74
34237;BME280;20501;45.956;13.632;2022-12-19T13:55:42;102263.22;;;10.94;47.86
34237;BME280;20501;45.956;13.632;2022-12-19T13:58:22;102261.63;;;10.77;47.36
34237;BME280;20501;45.956;13.632;2022-12-19T14:00:50;102268.25;;;11.13;48.01
34237;BME280;20501;45.956;13.632;2022-12-19T14:03:20;102264.50;;;11.15;47.47
34237;BME280;20501;45.956;13.632;2022-12-19T14:05:49;102271.53;;;11.18;47.43
34237;BME280;20501;45.956;13.632;2022-12-19T14:08:22;102267.59;;;11.37;47.33
34237;BME280;20501;45.956;13.632;2022-12-19T14:10:50;102273.00;;;11.09;47.77
34237;BME280;20501;45.956;13.632;2022-12-19T14:13:20;102269.63;;;10.78;48.99
34237;BME280;20501;45.956;13.632;2022-12-19T14:16:05;102272.94;;;10.69;48.91
34237;BME280;20501;45.956;13.632;2022-12-19T14:18:32;102281.63;;;11.29;47.49
34237;BME280;20501;45.956;13.632;2022-12-19T14:23:42;102285.03;;;11.05;48.24
34237;BME280;20501;45.956;13.632;2022-12-19T14:26:32;102292.72;;;11.39;47.37
34237;BME280;20501;45.956;13.632;2022-12-19T14:31:30;102280.31;;;11.22;46.18
34237;BME280;20501;45.956;13.632;2022-12-19T14:33:57;102273.56;;;11.42;47.30
34237;BME280;20501;45.956;13.632;2022-12-19T14:36:31;102280.22;;;10.96;48.58
34237;BME280;20501;45.956;13.632;2022-12-19T14:38:57;102280.66;;;11.30;47.92
34237;BME280;20501;45.956;13.632;2022-12-19T14:44:18;102289.66;;;11.30;48.00
34237;BME280;20501;45.956;13.632;2022-12-19T14:46:59;102281.69;;;11.42;47.65
34237;BME280;20501;45.956;13.632;2022-12-19T14:49:32;102287.25;;;11.53;47.33
34237;BME280;20501;45.956;13.632;2022-12-19T14:52:04;102283.66;;;11.53;47.29
34237;BME280;20501;45.956;13.632;2022-12-19T14:57:47;102289.41;;;11.21;47.97
34237;BME280;20501;45.956;13.632;2022-12-19T15:00:21;102289.59;;;11.18;45.39
34237;BME280;20501;45.956;13.632;2022-12-19T15:02:46;102288.19;;;11.12;46.96
34237;BME280;20501;45.956;13.632;2022-12-19T15:05:14;102284.44;;;9.09;52.92
34237;BME280;20501;45.956;13.632;2022-12-19T15:07:44;102293.13;;;8.82;53.86
34237;BME280;20501;45.956;13.632;2022-12-19T15:10:16;102282.91;;;8.39;49.62
34237;BME280;20501;45.956;13.632;2022-12-19T15:13:01;102279.59;;;8.83;52.96
34237;BME280;20501;45.956;13.632;2022-12-19T15:15:58;102274.50;;;9.56;50.81
34237;BME280;20501;45.956;13.632;2022-12-19T15:20:54;102278.91;;;10.02;48.01
34237;BME280;20501;45.956;13.632;2022-12-19T15:23:21;102282.44;;;7.97;50.14
34237;BME280;20501;45.956;13.632;2022-12-19T15:25:47;102298.16;;;7.17;52.51
34237;BME280;20501;45.956;13.632;2022-12-19T15:28:18;102282.78;;;7.38;56.79
34237;BME280;20501;45.956;13.632;2022-12-19T15:30:49;102279.63;;;7.48;52.90
34237;BME280;20501;45.956;13.632;2022-12-19T15:33:16;102273.72;;;6.85;52.99